Miles City, Montana
Current Conditions -  °F | °C
As of 6:53 AM on Thursday 18 Dec 2014 (Local Time) from KMLS Reporting Station
Overcast Overcast  
Wind Chill: 25°   Ceiling: 6500
Heat Index: 25°   Visibility: 10mi
Dew Point: 22°   Wind: 3mph
Humidity: 88%   Direction: 140°SE
Pressure: 29.96"   Gusts: NA
Location:  46.41°N, 105.84°W
Report Text: KMLS 181353Z AUTO 14003KT 10SM OVC065 M04/M06 A2996 RMK AO2 SLP177 T10391056 $
Loading
Personal Weather Stations






























Interactive Weather Map New forecast layout! Learn more

10-Day Weather Forecast

Advertisements
Track Severe Weather on mobile